• Join FlightAware (Why Join?)
  • Login
  • US Flag 
03:45PM EST


 

Airport Tracker/Info


-or-


 

Live Flight TrackerFlight Track Log ✈ ASQ4209 ✈ 31-May-2013 ✈ KSTL - KEWR

Flight Track Log - Related Links

Times and Time Zones

All times are in EDT time to prevent confusion due to time zone crossing. See the ASQ4209 flight status page for this flight to view local times or setup timezone preferences in your user account.

Time Position Orientation Groundspeed Altitude Reporting Facility
EDT Latitude Longitude Course Direction KTS MPH feet Rate Location/Type
01:52PM 38.7167 -90.3000 84° East 177 204 2,700  Level Gateway (St. Louis) TRACON
01:53PM 38.7069 -90.2447 103° East 193 222 3,900 1,500 Climbing Kansas City Center
01:54PM 38.6878 -90.1600 106° East 232 267 5,500 1,500 Climbing Kansas City Center
01:55PM 38.7607 -89.8269 87° East  Level FlightAware Approximate
01:55PM 38.6947 -90.0561 85° East 276 318 7,100  Level Kansas City Center
01:56PM 38.7658 -89.6917 87° East  Level FlightAware Approximate
01:56PM 38.7036 -89.9497 84° East 298 343 9,000  Level Kansas City Center
01:57PM 38.7835 -89.5485 84° East  Level FlightAware Approximate
01:57PM 38.7114 -89.8414 85° East 304 350 10,000  Level Kansas City Center
01:58PM 38.7181 -89.7303 86° East 311 358 11,000 1,200 Climbing Kansas City Center
01:59PM 38.7072 -89.5950 96° East 334 384 12,500 1,260 Climbing Kansas City Center
02:00PM 38.7156 -89.4578 86° East 362 417 13,600 960 Climbing Kansas City Center
02:01PM 38.7319 -89.3225 81° East 387 445 14,600 1,380 Climbing Kansas City Center
02:02PM 38.7625 -89.1883 74° East 392 451 16,500 1,920 Climbing Kansas City Center
02:03PM 38.7931 -89.0514 74° East 375 432 18,600 1,800 Climbing Kansas City Center
02:04PM 38.8183 -88.9464 73° East 364 419 20,300 1,560 Climbing Kansas City Center
02:05PM 38.8481 -88.8275 72° East 355 409 21,800 1,200 Climbing Kansas City Center
02:06PM 38.8786 -88.6800 75° East 357 411 22,800 720 Climbing Kansas City Center
02:07PM 38.9033 -88.5581 75° East 378 435 23,300 660 Climbing Kansas City Center
02:08PM 38.9394 -88.4181 72° East 401 461 24,200 900 Climbing Kansas City Center
02:09PM 38.9783 -88.2806 70° East 407 468 25,200 1,020 Climbing Kansas City Center
02:10PM 39.0250 -88.1133 70° East 410 472 26,400 1,020 Climbing Kansas City Center
02:11PM 39.0531 -88.0044 72° East 410 472 27,200 900 Climbing Indianapolis Center
02:12PM 39.0914 -87.8672 70° East 407 468 28,200 960 Climbing Indianapolis Center
02:13PM 39.1303 -87.7267 70° East 410 472 29,200 960 Climbing Indianapolis Center
02:14PM 39.1678 -87.5900 70° East 405 466 30,200 960 Climbing Indianapolis Center
02:15PM 39.2050 -87.4506 71° East 408 470 31,200 960 Climbing Indianapolis Center
02:16PM 39.2428 -87.3119 71° East 408 470 32,200 1,080 Climbing Indianapolis Center
02:17PM 39.2792 -87.1744 71° East 404 465 33,500 1,140 Climbing Indianapolis Center
02:18PM 39.3156 -87.0417 70° East 393 452 34,600 720 Climbing Indianapolis Center
02:19PM 39.3508 -86.9086 71° East 389 448 35,000 180 Climbing Indianapolis Center
02:20PM 39.3956 -86.7397 71° East 412 474 35,000  Level Indianapolis Center
02:21PM 39.4350 -86.5878 71° East 438 504 35,000  Level Indianapolis Center
02:22PM 39.4764 -86.4325 71° East 451 519 35,000  Level Indianapolis Center
02:23PM 39.5194 -86.2697 71° East 471 542 35,000  Level Indianapolis Center
02:24PM 39.5611 -86.1019 72° East 484 557 35,000  Level Indianapolis Center
02:25PM 39.6036 -85.9328 72° East 490 564 35,000  Level Indianapolis Center
02:26PM 39.6519 -85.7681 69° East 488 562 35,000  Level Indianapolis Center
02:27PM 39.7133 -85.6078 63° Northeast 479 551 35,000 480 Level Indianapolis Center
02:28PM 39.7728 -85.4547 63° Northeast 470 541 36,000 900 Climbing Indianapolis Center
02:29PM 39.8286 -85.3047 64° Northeast 458 527 36,900 480 Climbing Indianapolis Center
02:30PM 39.8833 -85.1544 65° Northeast 456 525 37,000  Climbing Indianapolis Center
02:31PM 39.9378 -84.9972 66° East 469 540 37,000  Level Indianapolis Center
02:33PM 39.9997 -84.8081 67° East 480 552 37,000  Level Indianapolis Center
02:34PM 40.0533 -84.6422 67° East 491 565 37,000  Level Indianapolis Center
02:35PM 40.1072 -84.4786 67° East 486 559 37,000  Level Indianapolis Center
02:36PM 40.1597 -84.3172 67° East 479 551 37,000 -60 Level Indianapolis Center
02:37PM 40.2117 -84.1564 67° East 475 547 36,900 -60 Descending Indianapolis Center
02:38PM 40.2572 -84.0106 68° East 431 496 36,900  Level Indianapolis Center
02:39PM 40.3011 -83.8706 68° East 411 473 37,000  Climbing Indianapolis Center
02:40PM 40.3481 -83.7275 67° East 420 483 37,000  Level Indianapolis Center
02:41PM 40.3944 -83.5764 68° East 436 502 37,000  Level Indianapolis Center
02:42PM 40.4436 -83.4206 67° East 452 520 37,000  Level Indianapolis Center
02:43PM 40.4931 -83.2608 68° East 464 534 37,000  Level Indianapolis Center
02:44PM 40.5436 -83.0967 68° East 469 540 37,000  Level Indianapolis Center
02:45PM 40.5944 -82.9339 68° East 477 549 37,000  Level Indianapolis Center
02:46PM 40.6436 -82.7692 68° East 481 554 37,000  Level Indianapolis Center
02:47PM 40.7022 -82.5772 68° East 482 555 37,000 -60 Level Indianapolis Center
02:48PM 40.7511 -82.4142 68° East 479 551 36,900  Descending Indianapolis Center
02:49PM 40.7981 -82.2564 68° East 465 535 37,000  Climbing Indianapolis Center
02:50PM 40.8433 -82.1064 68° East 446 513 37,000  Level Indianapolis Center
02:51PM 40.8853 -81.9608 69° East 430 495 37,000  Level Indianapolis Center
02:52PM 40.9264 -81.8189 69° East 416 479 37,000  Level Indianapolis Center
02:53PM 40.9675 -81.6822 68° East 402 463 37,000  Level Indianapolis Center
02:54PM 41.0075 -81.5433 69° East 398 458 37,000  Level Cleveland Center
02:55PM 41.0503 -81.4008 68° East 404 465 37,000  Level Cleveland Center
02:56PM 41.0908 -81.2525 70° East 411 473 37,000  Level Cleveland Center
02:57PM 41.1333 -81.1042 69° East 422 486 37,000  Level Cleveland Center
02:58PM 41.1778 -80.9528 69° East 432 497 37,000  Level Cleveland Center
02:59PM 41.2219 -80.8011 69° East 432 497 37,000  Level Cleveland Center
03:00PM 41.2636 -80.6494 70° East 438 504 37,000  Level Cleveland Center
03:01PM 41.3075 -80.4947 69° East 438 504 37,000  Level Cleveland Center
03:02PM 41.3511 -80.3397 69° East 443 510 37,000  Level Cleveland Center
03:03PM 41.3944 -80.1844 70° East 443 510 37,000  Level Cleveland Center
03:04PM 41.4375 -80.0292 70° East 443 510 37,000  Level Cleveland Center
03:05PM 41.4742 -79.8931 70° East 443 510 37,000  Level Cleveland Center
03:06PM 41.5169 -79.7372 70° East 443 510 37,000  Level Cleveland Center
03:07PM 41.5594 -79.5842 70° East 443 510 37,000  Level Cleveland Center
03:08PM 41.5997 -79.4281 71° East 443 510 37,000  Level Cleveland Center
03:09PM 41.6419 -79.2744 70° East 443 510 37,000 -600 Level Cleveland Center
03:10PM 41.6503 -79.1103 86° East 443 510 35,800 -1,680 Descending Cleveland Center
03:11PM 41.6294 -78.9442 99° East 434 499 33,700 -2,100 Descending Cleveland Center
03:12PM 41.6103 -78.7808 99° East 439 505 31,700 -1,380 Descending Cleveland Center
03:13PM 41.5889 -78.6175 100° East 444 511 31,000 -360 Descending Cleveland Center
03:14PM 41.5714 -78.4597 98° East 444 511 31,000  Level Cleveland Center
03:16PM 41.5364 -78.1739 99° East 435 501 31,000  Level New York Center
03:17PM 41.5178 -78.0025 98° East 447 514 31,000  Level New York Center
03:18PM 41.4942 -77.8422 101° East 453 521 31,000  Level New York Center
03:19PM 41.4728 -77.6764 100° East 453 521 31,000  Level New York Center
03:20PM 41.4467 -77.5106 102° East 453 521 31,000 -720 Level New York Center
03:21PM 41.4172 -77.3331 102° East 453 521 29,600 -1,500 Descending New York Center
03:22PM 41.3844 -77.1694 105° East 453 521 28,100 -1,620 Descending New York Center
03:23PM 41.3494 -77.0031 106° East 458 527 26,500 -1,080 Descending New York Center
03:24PM 41.3122 -76.8394 107° East 464 534 26,000 -420 Descending New York Center
03:25PM 41.2769 -76.6706 105° East 464 534 25,700 -540 Descending New York Center
03:26PM 41.2392 -76.5044 107° East 464 534 25,000 -540 Descending New York Center
03:27PM 41.2069 -76.3528 106° East 472 543 24,700 -720 Descending New York Center
03:28PM 41.1686 -76.1869 107° East 472 543 23,700 -1,500 Descending New York Center
03:29PM 41.1361 -76.0328 106° East 453 521 21,800 -2,760 Descending New York Center
03:30PM 41.0931 -75.8753 110° East 420 483 18,100 -3,420 Descending New York Center
03:31PM 41.0553 -75.7322 109° East 408 470 15,000 -2,640 Descending New York Center
03:32PM 41.0189 -75.6031 110° East 408 470 13,000 -1,380 Descending New York Center
03:33PM 40.9808 -75.4628 110° East 392 451 12,300 -1,140 Descending New York Center
03:34PM 40.9481 -75.3481 111° Southeast 343 395 10,800 -1,440 Descending New York Center
03:35PM 40.9186 -75.2417 110° East 315 362 9,400 -1,500 Descending New York Center
03:36PM 40.8892 -75.1381 111° Southeast 302 348 7,900 -1,260 Descending New York Center
03:37PM 40.8631 -75.0514 112° Southeast 295 339 7,000 -480 Descending New York Center
03:38PM 40.8647 -74.9500 89° East 277 319 7,000 -360 Level New York Center
03:39PM 40.8706 -74.8433 86° East 282 325 6,300 -540 Descending New York Center
03:40PM 40.8806 -74.7342 83° East 287 330 6,000 -180 Descending New York Center
03:41PM 40.9019 -74.6531 71° East 263 303 6,000  Level New York Center
03:42PM 40.9322 -74.5586 67° East 256 295 6,000 -480 Level New York Center
03:43PM 40.9597 -74.4806 65° Northeast 251 289 5,100 -540 Descending New York Center
03:44PM 40.9750 -74.3878 78° East 245 282 5,000 -60 Descending New York Center
03:45PM 40.9833 -74.3167 81° East 240 276 5,000 -480 Level New York TRACON
03:46PM 40.9667 -74.2167 102° East 242 278 4,100 -480 Descending New York TRACON
03:47PM 40.9500 -74.1500 108° East 211 243 4,000 -300 Descending New York TRACON
03:48PM 40.9167 -74.1000 131° Southeast 190 219 3,600 -540 Descending New York TRACON
03:49PM 40.8667 -74.0833 166° South 176 203 3,000 -540 Descending New York TRACON
03:50PM 40.8167 -74.0833 180° South 170 196 2,600 -420 Descending New York TRACON